WAPP/AMQ METAR and TAF weather

Enter ICAO airport designator
Station Type Date Time Source
WAPP METAR 2019/04/25 07:30 UTC NOAA

WAPP 250730Z 01003KT 330V070 9999 FEW016CB SCT017 28/26 Q1005 NOSIGRMK CB TO S


Station Type Date Time Source
WAPP Decoded METAR 2019/04/25 07:30 UTC NOAA

Ambon / Pattimura, Indonesia (WAPP) 03-42S 128-05E 12M
Apr 25, 2019 - 03:30 AM EDT / 2019.04.25 0730 UTC
Wind: from the N (010 degrees) at 3 MPH (3 KT) (direction variable):0
Visibility: greater than 7 mile(s):0
Sky conditions: partly cloudy
Weather: Cumulonimbus clouds observed
Temperature: 82 F (28 C)
Dew Point: 78 F (26 C)
Relative Humidity: 88%
Pressure (altimeter): 29.68 in. Hg (1005 hPa)
ob: WAPP 250730Z 01003KT 330V070 9999 FEW016CB SCT017 28/26 Q1005 NOSIGRMK CB TO S
cycle: 7

Station Type Date Time Source
WAPP TAF 2015/06/30 00:57 UTC NOAA

TAF WAPP 302300Z 0100/0124 34006KT 9999 SCT018
TEMPO 0101/0104 7000 -RA BKN017
BECMG 0105/0107 21006KT
BECMG 0109/0111 32006KT

Example: see airport list